Time;durP1;ratioP1;P1;durP2;ratioP2;P2;SDS_P1;SDS_P2;PMS_P1;PMS_P2;Temp;Humidity;BMP_temperature;BMP_pressure;BME280_temperature;BME280_humidity;BME280_pressure;Samples;Min_cycle;Max_cycle;Signal;HPM_P1;HPM_P2
2022/03/12 00:01:17;;;;;;;7.73;1.60;;;;;;;;;;5075206;28;20626;-77
2022/03/12 00:03:45;;;;;;;8.80;1.53;;;;;;;;;;5073345;28;20194;-77
2022/03/12 00:06:13;;;;;;;9.27;1.80;;;;;;;;;;5083887;28;20209;-76
2022/03/12 00:08:44;;;;;;;9.20;1.83;;;;;;;;;;5079023;28;20640;-77
2022/03/12 00:11:12;;;;;;;6.80;1.43;;;;;;;;;;5081474;28;20718;-76
2022/03/12 00:13:39;;;;;;;5.13;1.50;;;;;;;;;;5071065;28;20228;-74
2022/03/12 00:16:13;;;;;;;5.00;1.37;;;;;;;;;;5078104;28;20232;-77
2022/03/12 00:18:42;;;;;;;9.07;1.10;;;;;;;;;;5091131;28;20248;-76
2022/03/12 00:21:12;;;;;;;6.13;1.20;;;;;;;;;;5070689;28;20202;-76
2022/03/12 00:23:47;;;;;;;4.80;1.53;;;;;;;;;;5070755;28;20344;-76
2022/03/12 00:26:15;;;;;;;4.37;1.20;;;;;;;;;;5072801;28;20562;-76
2022/03/12 00:28:43;;;;;;;6.20;1.03;;;;;;;;;;5091205;28;20236;-76
2022/03/12 00:31:10;;;;;;;4.27;1.00;;;;;;;;;;5079417;28;20738;-76
2022/03/12 00:33:38;;;;;;;5.13;0.87;;;;;;;;;;5085605;28;20233;-77
2022/03/12 00:36:05;;;;;;;5.80;1.20;;;;;;;;;;5070420;28;20244;-75
2022/03/12 00:38:33;;;;;;;8.67;1.27;;;;;;;;;;5071707;28;20230;-76
2022/03/12 00:41:05;;;;;;;4.80;0.87;;;;;;;;;;5072090;28;20252;-76
2022/03/12 00:43:32;;;;;;;5.97;1.00;;;;;;;;;;5083778;28;20195;-77
2022/03/12 00:45:59;;;;;;;6.37;0.97;;;;;;;;;;5075397;28;20286;-76
2022/03/12 00:48:27;;;;;;;4.27;0.80;;;;;;;;;;5073228;28;20254;-76
2022/03/12 00:50:55;;;;;;;5.23;1.00;;;;;;;;;;5077582;28;20705;-76
2022/03/12 00:53:22;;;;;;;6.07;1.07;;;;;;;;;;5070501;28;20298;-76
2022/03/12 00:55:49;;;;;;;4.90;0.90;;;;;;;;;;5073478;28;20643;-76
2022/03/12 00:58:18;;;;;;;3.10;0.70;;;;;;;;;;5089989;28;20258;-76
2022/03/12 01:00:45;;;;;;;4.87;0.87;;;;;;;;;;5081250;28;20237;-77
2022/03/12 01:03:12;;;;;;;2.90;0.80;;;;;;;;;;5079138;28;20200;-76
2022/03/12 01:05:55;;;;;;;4.47;0.90;;;;;;;;;;5081132;28;20252;-76
2022/03/12 01:08:24;;;;;;;5.80;1.20;;;;;;;;;;5070403;28;20199;-75
2022/03/12 01:10:52;;;;;;;5.43;1.30;;;;;;;;;;5071244;28;20215;-76
2022/03/12 01:13:21;;;;;;;7.87;1.20;;;;;;;;;;5078720;28;20289;-76
2022/03/12 01:15:49;;;;;;;6.10;1.10;;;;;;;;;;5091158;28;20564;-76
2022/03/12 01:18:17;;;;;;;4.37;0.80;;;;;;;;;;5075506;28;20265;-77
2022/03/12 01:20:45;;;;;;;4.93;1.07;;;;;;;;;;5070358;28;20271;-76
2022/03/12 01:23:14;;;;;;;6.93;1.30;;;;;;;;;;5083468;28;20245;-76
2022/03/12 01:25:41;;;;;;;4.77;1.20;;;;;;;;;;5078809;28;20197;-76
2022/03/12 01:28:09;;;;;;;8.83;1.17;;;;;;;;;;5085391;28;20199;-76
2022/03/12 01:30:38;;;;;;;7.90;1.20;;;;;;;;;;5074555;28;20229;-76
2022/03/12 01:33:05;;;;;;;6.03;1.13;;;;;;;;;;5076600;28;20298;-76
2022/03/12 01:35:33;;;;;;;6.03;1.07;;;;;;;;;;5090308;28;20190;-77
2022/03/12 01:38:00;;;;;;;7.77;1.20;;;;;;;;;;5089192;28;20225;-76
2022/03/12 01:40:28;;;;;;;6.33;1.07;;;;;;;;;;5091587;28;20255;-76
2022/03/12 01:42:55;;;;;;;8.97;1.50;;;;;;;;;;5094063;28;20202;-76
2022/03/12 01:45:26;;;;;;;8.30;1.57;;;;;;;;;;5089474;28;20264;-76
2022/03/12 01:47:55;;;;;;;8.43;1.23;;;;;;;;;;5073775;28;20595;-76
2022/03/12 01:50:24;;;;;;;7.00;1.30;;;;;;;;;;5079125;28;20727;-76
2022/03/12 01:52:51;;;;;;;7.13;1.00;;;;;;;;;;5077505;28;20621;-76
2022/03/12 01:55:19;;;;;;;11.30;1.50;;;;;;;;;;5077533;28;20271;-76
2022/03/12 01:57:46;;;;;;;9.17;1.80;;;;;;;;;;5080745;28;20306;-76
2022/03/12 02:00:22;;;;;;;6.07;1.03;;;;;;;;;;5080983;28;20266;-76
2022/03/12 02:02:52;;;;;;;9.47;1.40;;;;;;;;;;5079975;28;20223;-76
2022/03/12 02:05:21;;;;;;;8.23;1.73;;;;;;;;;;5076614;28;20199;-76
2022/03/12 02:07:48;;;;;;;9.37;1.40;;;;;;;;;;5081925;28;20286;-76
2022/03/12 02:10:18;;;;;;;6.07;1.40;;;;;;;;;;5080415;28;20309;-75
2022/03/12 02:12:45;;;;;;;11.13;1.60;;;;;;;;;;5079396;28;20205;-76
2022/03/12 02:15:12;;;;;;;7.07;1.40;;;;;;;;;;5073621;28;20235;-76
2022/03/12 02:17:40;;;;;;;9.90;1.20;;;;;;;;;;5085330;28;20243;-76
2022/03/12 02:20:07;;;;;;;7.97;1.40;;;;;;;;;;5076439;28;20572;-76
2022/03/12 02:22:37;;;;;;;9.87;1.60;;;;;;;;;;5084226;28;20244;-76
2022/03/12 02:25:06;;;;;;;6.07;1.33;;;;;;;;;;5082560;28;20205;-77
2022/03/12 02:27:34;;;;;;;9.20;1.37;;;;;;;;;;5074723;28;20286;-76
2022/03/12 02:30:02;;;;;;;6.60;1.57;;;;;;;;;;5079714;28;20720;-76
2022/03/12 02:32:29;;;;;;;9.37;1.67;;;;;;;;;;5085405;28;20199;-76
2022/03/12 02:34:59;;;;;;;12.10;1.57;;;;;;;;;;5076859;28;20292;-76
2022/03/12 02:37:29;;;;;;;8.27;1.90;;;;;;;;;;5083367;28;20256;-76
2022/03/12 02:39:57;;;;;;;6.87;1.40;;;;;;;;;;5073413;28;20198;-76
2022/03/12 02:42:26;;;;;;;8.03;1.40;;;;;;;;;;5082455;28;20248;-76
2022/03/12 02:44:54;;;;;;;10.87;1.77;;;;;;;;;;5075879;28;20199;-76
2022/03/12 02:47:22;;;;;;;14.30;1.70;;;;;;;;;;5080818;28;20230;-75
2022/03/12 02:49:50;;;;;;;7.97;1.20;;;;;;;;;;5078120;28;20231;-77
2022/03/12 02:52:18;;;;;;;11.10;1.30;;;;;;;;;;5081499;28;20233;-76
2022/03/12 02:54:47;;;;;;;9.87;1.67;;;;;;;;;;5078762;28;20243;-75
2022/03/12 02:57:15;;;;;;;8.27;1.40;;;;;;;;;;5087226;28;20614;-75
2022/03/12 02:59:44;;;;;;;7.80;1.70;;;;;;;;;;5090330;28;20227;-76
2022/03/12 03:02:12;;;;;;;13.10;1.60;;;;;;;;;;5072904;28;20647;-76
2022/03/12 03:04:40;;;;;;;7.70;1.47;;;;;;;;;;5078413;28;20280;-76
2022/03/12 03:07:08;;;;;;;10.60;1.77;;;;;;;;;;5078836;28;20226;-75
2022/03/12 03:09:36;;;;;;;12.03;1.77;;;;;;;;;;5087259;28;20430;-76
2022/03/12 03:12:06;;;;;;;7.93;1.50;;;;;;;;;;5074319;28;20646;-75
2022/03/12 03:14:33;;;;;;;12.43;2.00;;;;;;;;;;5072773;28;20283;-76
2022/03/12 03:17:05;;;;;;;11.87;1.63;;;;;;;;;;5080801;28;20287;-76
2022/03/12 03:19:34;;;;;;;7.53;1.47;;;;;;;;;;5076137;28;20286;-75
2022/03/12 03:22:01;;;;;;;10.47;1.83;;;;;;;;;;5081775;28;20244;-76
2022/03/12 03:24:28;;;;;;;11.30;2.00;;;;;;;;;;5077896;28;20289;-76
2022/03/12 03:26:57;;;;;;;9.43;1.73;;;;;;;;;;5073143;28;20693;-75
2022/03/12 03:29:25;;;;;;;9.30;1.50;;;;;;;;;;5072782;28;20197;-75
2022/03/12 03:31:52;;;;;;;10.27;1.70;;;;;;;;;;5060162;28;20314;-76
2022/03/12 03:34:22;;;;;;;8.00;1.83;;;;;;;;;;5079410;28;20270;-76
2022/03/12 03:36:49;;;;;;;12.40;2.30;;;;;;;;;;5086453;28;20668;-75
2022/03/12 03:39:16;;;;;;;8.47;1.43;;;;;;;;;;5071856;28;20282;-76
2022/03/12 03:41:44;;;;;;;13.27;1.73;;;;;;;;;;5084171;28;20686;-76
2022/03/12 03:44:11;;;;;;;10.03;1.87;;;;;;;;;;5074745;28;20286;-75
2022/03/12 03:46:39;;;;;;;10.00;1.90;;;;;;;;;;5080614;28;20577;-76
2022/03/12 03:49:06;;;;;;;16.07;3.00;;;;;;;;;;5075618;28;20233;-76
2022/03/12 03:51:37;;;;;;;8.73;1.67;;;;;;;;;;5058533;28;20304;-75
2022/03/12 03:54:08;;;;;;;9.53;1.43;;;;;;;;;;5086001;28;20206;-76
2022/03/12 03:56:35;;;;;;;15.13;2.10;;;;;;;;;;5071370;28;20696;-76
2022/03/12 03:59:02;;;;;;;14.60;2.10;;;;;;;;;;5080919;28;20819;-75
2022/03/12 04:01:29;;;;;;;11.60;2.17;;;;;;;;;;5076192;28;20230;-76
2022/03/12 04:03:57;;;;;;;11.93;2.10;;;;;;;;;;5080531;28;20697;-76
2022/03/12 04:06:25;;;;;;;16.53;2.63;;;;;;;;;;5080763;28;20219;-75
2022/03/12 04:08:54;;;;;;;13.70;1.70;;;;;;;;;;5079084;28;20210;-76
2022/03/12 04:11:22;;;;;;;13.40;2.33;;;;;;;;;;5074160;28;20229;-76
2022/03/12 04:13:52;;;;;;;15.50;2.40;;;;;;;;;;5082625;28;20288;-76
2022/03/12 04:16:20;;;;;;;13.13;1.90;;;;;;;;;;5082828;28;20205;-75
2022/03/12 04:18:48;;;;;;;9.37;2.17;;;;;;;;;;5079564;28;20275;-75
2022/03/12 04:21:16;;;;;;;8.83;1.73;;;;;;;;;;5080957;28;20693;-76
2022/03/12 04:23:44;;;;;;;14.73;2.37;;;;;;;;;;5085375;28;20682;-75
2022/03/12 04:26:13;;;;;;;14.37;2.10;;;;;;;;;;5082917;28;20293;-76
2022/03/12 04:28:40;;;;;;;12.77;2.03;;;;;;;;;;5081046;28;20199;-76
2022/03/12 04:31:08;;;;;;;15.50;2.97;;;;;;;;;;5080425;28;20249;-76
2022/03/12 04:33:38;;;;;;;10.73;2.00;;;;;;;;;;5077937;28;20237;-76
2022/03/12 04:36:06;;;;;;;10.60;2.17;;;;;;;;;;5080017;28;20201;-76
2022/03/12 04:38:33;;;;;;;15.67;2.63;;;;;;;;;;5080091;28;20280;-75
2022/03/12 04:41:00;;;;;;;10.37;1.70;;;;;;;;;;5073614;28;20277;-75
2022/03/12 04:43:30;;;;;;;11.27;2.17;;;;;;;;;;5071515;28;20292;-75
2022/03/12 04:45:58;;;;;;;9.77;1.90;;;;;;;;;;5087910;28;20232;-75
2022/03/12 04:48:25;;;;;;;18.70;2.60;;;;;;;;;;5068639;28;20316;-75
2022/03/12 04:50:53;;;;;;;19.93;2.37;;;;;;;;;;5084709;28;20316;-76
2022/03/12 04:53:21;;;;;;;12.63;1.77;;;;;;;;;;5063622;28;20288;-75
2022/03/12 04:55:48;;;;;;;12.70;1.90;;;;;;;;;;5082238;28;20645;-76
2022/03/12 04:58:16;;;;;;;12.07;1.87;;;;;;;;;;5072440;28;20260;-76
2022/03/12 05:00:46;;;;;;;11.70;2.03;;;;;;;;;;5080642;28;20229;-75
2022/03/12 05:03:14;;;;;;;13.10;1.80;;;;;;;;;;5080038;28;20267;-75
2022/03/12 05:05:42;;;;;;;11.90;2.37;;;;;;;;;;5089294;28;20197;-76
2022/03/12 05:08:10;;;;;;;14.87;1.80;;;;;;;;;;5089577;28;20217;-76
2022/03/12 05:10:38;;;;;;;12.40;1.90;;;;;;;;;;5086238;28;20255;-76
2022/03/12 05:13:06;;;;;;;15.80;2.20;;;;;;;;;;5085175;28;20288;-76
2022/03/12 05:15:37;;;;;;;17.60;2.63;;;;;;;;;;5074759;28;20285;-76
2022/03/12 05:18:07;;;;;;;12.53;2.23;;;;;;;;;;5082340;28;20230;-76
2022/03/12 05:20:36;;;;;;;11.27;2.00;;;;;;;;;;5077822;28;20290;-75
2022/03/12 05:23:03;;;;;;;9.30;2.30;;;;;;;;;;5085287;28;20222;-75
2022/03/12 05:25:31;;;;;;;15.17;2.50;;;;;;;;;;5080207;28;20201;-76
2022/03/12 05:27:58;;;;;;;13.03;2.00;;;;;;;;;;5064809;28;20248;-76
2022/03/12 05:30:27;;;;;;;13.17;1.93;;;;;;;;;;5083561;28;20208;-76
2022/03/12 05:32:55;;;;;;;16.77;2.80;;;;;;;;;;5085379;28;20699;-76
2022/03/12 05:35:23;;;;;;;12.77;1.97;;;;;;;;;;5085825;28;20293;-75
2022/03/12 05:37:51;;;;;;;11.87;1.90;;;;;;;;;;5074772;28;20670;-76
2022/03/12 05:40:19;;;;;;;9.80;1.90;;;;;;;;;;5086795;28;20685;-75
2022/03/12 05:42:48;;;;;;;15.80;1.97;;;;;;;;;;5089293;28;20204;-75
2022/03/12 05:45:17;;;;;;;12.67;2.50;;;;;;;;;;5085572;28;20236;-76
2022/03/12 05:47:45;;;;;;;13.20;2.00;;;;;;;;;;5084693;28;20316;-76
2022/03/12 05:50:13;;;;;;;18.30;2.67;;;;;;;;;;5080667;28;20564;-76
2022/03/12 05:52:45;;;;;;;11.73;2.17;;;;;;;;;;5088348;28;20228;-76
2022/03/12 05:55:12;;;;;;;12.00;2.93;;;;;;;;;;5087493;28;20193;-76
2022/03/12 05:57:40;;;;;;;14.23;2.53;;;;;;;;;;5090181;28;20205;-76
2022/03/12 06:00:11;;;;;;;16.83;2.53;;;;;;;;;;5092352;28;20275;-75
2022/03/12 06:02:40;;;;;;;17.53;2.67;;;;;;;;;;5085313;28;20266;-76
2022/03/12 06:05:09;;;;;;;14.80;2.73;;;;;;;;;;5086534;28;20285;-76
2022/03/12 06:07:37;;;;;;;12.93;2.40;;;;;;;;;;5076480;28;20246;-75
2022/03/12 06:10:06;;;;;;;15.47;2.70;;;;;;;;;;5079907;28;20231;-76
2022/03/12 06:12:34;;;;;;;14.60;2.40;;;;;;;;;;5082504;28;20219;-75
2022/03/12 06:15:03;;;;;;;14.13;2.17;;;;;;;;;;5087487;28;20576;-76
2022/03/12 06:17:30;;;;;;;13.87;2.20;;;;;;;;;;5084321;28;20198;-75
2022/03/12 06:19:57;;;;;;;16.07;2.50;;;;;;;;;;5076340;28;20942;-75
2022/03/12 06:22:25;;;;;;;15.57;2.53;;;;;;;;;;5086719;28;20635;-75
2022/03/12 06:24:52;;;;;;;13.43;2.20;;;;;;;;;;5086055;28;20209;-76
2022/03/12 06:27:22;;;;;;;11.83;2.27;;;;;;;;;;5081804;28;20212;-75
2022/03/12 06:29:49;;;;;;;12.93;2.77;;;;;;;;;;5081663;28;20207;-75
2022/03/12 06:32:16;;;;;;;16.27;2.53;;;;;;;;;;5082365;28;20260;-76
2022/03/12 06:34:45;;;;;;;12.60;2.17;;;;;;;;;;5081486;28;20236;-76
2022/03/12 06:37:12;;;;;;;11.27;1.97;;;;;;;;;;5074329;28;20271;-76
2022/03/12 06:39:40;;;;;;;15.30;2.70;;;;;;;;;;5089158;28;20205;-76
2022/03/12 06:42:07;;;;;;;14.70;2.73;;;;;;;;;;5079075;28;20891;-76
2022/03/12 06:44:37;;;;;;;15.63;2.43;;;;;;;;;;5078688;28;20307;-76
2022/03/12 06:47:07;;;;;;;15.23;2.50;;;;;;;;;;5085079;28;20227;-75
2022/03/12 06:49:35;;;;;;;13.07;2.87;;;;;;;;;;5081054;28;20743;-76
2022/03/12 06:52:02;;;;;;;12.73;2.17;;;;;;;;;;5081407;28;20236;-75
2022/03/12 06:54:29;;;;;;;11.30;2.60;;;;;;;;;;5083070;28;20212;-76
2022/03/12 06:56:57;;;;;;;17.90;3.10;;;;;;;;;;5085205;28;20232;-75
2022/03/12 06:59:24;;;;;;;15.00;2.67;;;;;;;;;;5083194;28;20225;-76
2022/03/12 07:01:53;;;;;;;12.20;2.20;;;;;;;;;;5082283;28;20201;-75
2022/03/12 07:04:21;;;;;;;13.90;2.20;;;;;;;;;;5083950;28;20560;-76
2022/03/12 07:06:49;;;;;;;8.83;2.20;;;;;;;;;;5083916;28;20571;-75
2022/03/12 07:09:16;;;;;;;9.53;2.57;;;;;;;;;;5085970;28;20286;-76
2022/03/12 07:11:43;;;;;;;13.53;3.23;;;;;;;;;;5076176;28;20309;-76
2022/03/12 07:14:11;;;;;;;13.57;2.57;;;;;;;;;;5087829;28;20284;-75
2022/03/12 07:16:38;;;;;;;14.93;2.93;;;;;;;;;;5076878;28;20225;-76
2022/03/12 07:19:07;;;;;;;14.70;2.80;;;;;;;;;;5072374;28;20275;-76
2022/03/12 07:21:34;;;;;;;11.53;3.27;;;;;;;;;;5077842;28;20293;-75
2022/03/12 07:24:01;;;;;;;15.43;3.73;;;;;;;;;;5074616;28;20257;-75
2022/03/12 07:26:29;;;;;;;13.83;3.07;;;;;;;;;;5084305;28;20232;-76
2022/03/12 07:28:56;;;;;;;10.20;2.23;;;;;;;;;;5062914;28;20213;-76
2022/03/12 07:31:24;;;;;;;16.13;2.83;;;;;;;;;;5080234;28;20246;-76
2022/03/12 07:33:51;;;;;;;13.83;3.10;;;;;;;;;;5073821;28;20198;-76
2022/03/12 07:36:20;;;;;;;14.97;2.63;;;;;;;;;;5073522;28;20213;-76
2022/03/12 07:38:47;;;;;;;14.67;2.87;;;;;;;;;;5078572;28;20754;-76
2022/03/12 07:41:15;;;;;;;9.87;2.20;;;;;;;;;;5078753;28;20285;-77
2022/03/12 07:43:42;;;;;;;14.90;2.67;;;;;;;;;;5077832;28;20284;-76
2022/03/12 07:46:10;;;;;;;10.10;1.93;;;;;;;;;;5081258;28;20206;-76
2022/03/12 07:48:37;;;;;;;12.27;2.60;;;;;;;;;;5080424;28;20280;-76
2022/03/12 07:51:06;;;;;;;13.60;2.40;;;;;;;;;;5079374;28;20723;-76
2022/03/12 07:53:36;;;;;;;7.47;2.23;;;;;;;;;;5081448;28;20206;-77
2022/03/12 07:56:03;;;;;;;13.67;2.87;;;;;;;;;;5082441;28;20195;-77
2022/03/12 07:58:31;;;;;;;7.00;2.33;;;;;;;;;;5080449;28;20251;-76
2022/03/12 08:00:59;;;;;;;12.77;2.70;;;;;;;;;;5087609;28;20245;-76
2022/03/12 08:03:26;;;;;;;10.50;2.30;;;;;;;;;;5087532;28;20621;-76
2022/03/12 08:05:53;;;;;;;14.10;2.33;;;;;;;;;;5087742;28;20206;-76
2022/03/12 08:08:21;;;;;;;8.30;2.53;;;;;;;;;;5089727;28;20281;-76
2022/03/12 08:13:31;;;;;;;9.97;2.30;;;;;;;;;;5076544;28;20222;-76
2022/03/12 08:15:59;;;;;;;13.27;3.07;;;;;;;;;;5087494;28;20202;-77
2022/03/12 08:18:27;;;;;;;8.83;1.97;;;;;;;;;;5076149;28;20203;-78
2022/03/12 08:20:54;;;;;;;10.33;2.30;;;;;;;;;;5073222;28;21002;-77
2022/03/12 08:23:22;;;;;;;8.93;2.17;;;;;;;;;;5089837;28;20221;-76
2022/03/12 08:25:50;;;;;;;10.23;2.43;;;;;;;;;;5089518;28;20199;-76
2022/03/12 08:28:18;;;;;;;10.15;2.80;;;;;;;;;;5081281;28;20701;-76
2022/03/12 08:30:46;;;;;;;9.30;2.33;;;;;;;;;;5079815;28;20222;-76
2022/03/12 08:33:14;;;;;;;9.25;2.50;;;;;;;;;;5070970;28;20310;-76
2022/03/12 08:35:41;;;;;;;10.05;2.55;;;;;;;;;;5088418;28;20230;-76
2022/03/12 08:38:09;;;;;;;9.40;2.58;;;;;;;;;;5089663;28;20221;-77
2022/03/12 08:40:36;;;;;;;8.63;2.47;;;;;;;;;;5090469;28;20196;-77
2022/03/12 08:43:05;;;;;;;8.80;2.40;;;;;;;;;;5081038;28;20682;-76
2022/03/12 08:45:32;;;;;;;8.43;2.20;;;;;;;;;;5073659;28;20274;-77
2022/03/12 08:48:00;;;;;;;11.18;2.40;;;;;;;;;;5070697;28;20230;-77
2022/03/12 08:50:27;;;;;;;11.98;2.40;;;;;;;;;;5072001;28;20231;-76
2022/03/12 08:52:54;;;;;;;11.90;2.00;;;;;;;;;;5075121;28;20687;-76
2022/03/12 08:55:23;;;;;;;9.50;2.10;;;;;;;;;;5071004;28;20286;-77
2022/03/12 08:57:51;;;;;;;7.22;1.98;;;;;;;;;;5080228;28;20199;-77
2022/03/12 09:00:21;;;;;;;10.73;2.10;;;;;;;;;;5075269;28;20554;-76
2022/03/12 09:02:48;;;;;;;11.45;2.33;;;;;;;;;;5083927;28;20737;-76
2022/03/12 09:05:16;;;;;;;10.90;2.53;;;;;;;;;;5080182;28;20232;-76
2022/03/12 09:07:44;;;;;;;8.55;2.17;;;;;;;;;;5079383;28;20223;-76
2022/03/12 09:10:12;;;;;;;6.43;1.65;;;;;;;;;;5070910;28;20234;-75
2022/03/12 09:12:39;;;;;;;10.75;2.20;;;;;;;;;;5075910;28;20705;-76
2022/03/12 09:15:07;;;;;;;8.63;1.80;;;;;;;;;;5076390;28;20235;-76
2022/03/12 09:17:36;;;;;;;8.10;2.00;;;;;;;;;;5075333;28;20203;-75
2022/03/12 09:20:04;;;;;;;8.02;2.10;;;;;;;;;;5087721;28;20190;-75
2022/03/12 09:22:31;;;;;;;9.57;1.98;;;;;;;;;;5084772;28;20285;-83
2022/03/12 09:24:58;;;;;;;9.20;1.80;;;;;;;;;;5079336;28;20281;-82
2022/03/12 09:27:25;;;;;;;8.73;1.97;;;;;;;;;;5090634;28;20249;-82
2022/03/12 09:29:52;;;;;;;8.73;2.03;;;;;;;;;;5084752;28;20226;-81
2022/03/12 09:32:20;;;;;;;8.43;2.10;;;;;;;;;;5072847;28;20258;-81
2022/03/12 09:34:49;;;;;;;16.63;2.63;;;;;;;;;;5074222;28;20234;-82
2022/03/12 09:37:16;;;;;;;8.57;2.17;;;;;;;;;;5075224;28;20194;-83
2022/03/12 09:39:43;;;;;;;10.73;2.00;;;;;;;;;;5086848;28;20222;-84
2022/03/12 09:42:11;;;;;;;8.77;1.92;;;;;;;;;;5070967;28;20217;-83
2022/03/12 09:44:38;;;;;;;9.77;2.25;;;;;;;;;;5084926;28;20286;-83
2022/03/12 09:47:05;;;;;;;7.55;1.70;;;;;;;;;;5073711;28;20748;-84
2022/03/12 09:49:35;;;;;;;9.43;2.45;;;;;;;;;;5075563;28;20237;-84
2022/03/12 09:52:03;;;;;;;9.45;2.38;;;;;;;;;;5081301;28;20249;-84
2022/03/12 09:54:31;;;;;;;11.48;2.10;;;;;;;;;;5093281;28;20285;-83
2022/03/12 09:56:58;;;;;;;7.35;1.88;;;;;;;;;;5093768;28;20293;-84
2022/03/12 09:59:26;;;;;;;6.40;1.77;;;;;;;;;;5082317;28;20364;-84
2022/03/12 10:01:54;;;;;;;7.22;1.85;;;;;;;;;;5083174;28;20203;-84
2022/03/12 10:04:22;;;;;;;8.90;1.70;;;;;;;;;;5093210;28;20195;-85
2022/03/12 10:06:50;;;;;;;7.72;1.60;;;;;;;;;;5066765;28;20658;-85
2022/03/12 10:09:19;;;;;;;5.43;1.55;;;;;;;;;;5086395;28;20199;-82
2022/03/12 10:11:47;;;;;;;8.38;1.70;;;13.10;99.90;;;;;;5078220;28;20230;-83
2022/03/12 10:14:14;;;;;;;8.25;1.85;;;13.10;99.90;;;;;;5086449;28;20199;-83
2022/03/12 10:16:41;;;;;;;8.38;1.73;;;14.50;99.90;;;;;;5082021;28;20683;-85
2022/03/12 10:19:08;;;;;;;7.43;1.60;;;16.50;99.90;;;;;;5074458;28;20257;-84
2022/03/12 10:21:42;;;;;;;9.38;1.67;;;16.20;99.90;;;;;;5085138;28;20195;-84
2022/03/12 10:24:09;;;;;;;6.38;1.70;;;15.30;99.90;;;;;;5074910;28;20195;-83
2022/03/12 10:26:38;;;;;;;6.05;1.38;;;15.40;99.90;;;;;;5093928;28;20690;-82
2022/03/12 10:29:05;;;;;;;8.65;1.85;;;14.30;99.90;;;;;;5088049;28;20207;-82
2022/03/12 10:31:32;;;;;;;6.30;1.45;;;15.00;99.90;;;;;;5074111;28;20206;-82
2022/03/12 10:34:21;;;;;;;6.15;1.50;;;15.10;99.90;;;;;;5056866;28;20276;-82
2022/03/12 10:36:49;;;;;;;6.95;1.52;;;15.60;99.90;;;;;;5092126;28;20194;-84
2022/03/12 10:39:17;;;;;;;7.32;1.58;;;16.40;99.90;;;;;;5076052;28;20681;-82
2022/03/12 10:41:46;;;;;;;9.98;1.42;;;17.20;99.90;;;;;;5077444;28;20226;-82
2022/03/12 10:44:13;;;;;;;5.03;1.60;;;15.50;99.90;;;;;;5082170;28;20247;-83
2022/03/12 10:46:44;;;;;;;7.70;1.42;;;14.40;99.90;;;;;;5082456;28;20221;-82
2022/03/12 10:49:13;;;;;;;5.45;1.60;;;14.20;99.90;;;;;;5088856;28;20226;-83
2022/03/12 10:51:41;;;;;;;6.28;1.42;;;15.60;99.90;;;;;;5076596;28;20206;-82
2022/03/12 10:54:10;;;;;;;4.35;1.48;;;15.40;99.90;;;;;;5077324;28;20641;-82
2022/03/12 10:56:50;;;;;;;4.95;1.25;;;14.80;99.90;;;;;;5084976;28;20547;-81
2022/03/12 10:59:19;;;;;;;5.30;1.17;;;15.00;99.90;;;;;;5079413;28;20215;-82
2022/03/12 11:01:51;;;;;;;4.68;1.08;;;15.40;99.90;;;;;;5088778;28;20635;-82
2022/03/12 11:04:22;;;;;;;6.70;1.40;;;15.20;99.90;;;;;;5076421;28;20230;-82
2022/03/12 11:06:51;;;;;;;7.63;1.60;;;15.20;99.90;;;;;;5083762;28;20194;-82
2022/03/12 11:09:31;;;;;;;5.93;1.20;;;14.30;99.90;;;;;;5087863;28;20220;-82
2022/03/12 11:12:00;;;;;;;8.20;1.60;;;13.00;99.90;;;;;;5090619;28;20221;-82
2022/03/12 11:14:29;;;;;;;6.97;1.60;;;13.80;99.90;;;;;;5087935;28;20226;-82
2022/03/12 11:16:56;;;;;;;9.50;1.60;;;14.20;99.90;;;;;;5089739;28;20252;-82
2022/03/12 11:22:20;;;;;;;7.90;1.70;;;13.60;99.90;;;;;;5129228;27;21132;-82
2022/03/12 11:24:50;;;;;;;5.07;1.53;;;15.40;99.90;;;;;;5129812;27;20201;-82
2022/03/12 11:27:29;;;;;;;7.33;1.40;;;17.20;99.90;;;;;;5127420;27;20574;-82
2022/03/12 11:30:00;;;;;;;6.45;1.60;;;16.40;99.90;;;;;;5130249;27;20211;-82
2022/03/12 11:32:30;;;;;;;6.77;1.27;;;15.50;99.90;;;;;;5128428;27;20204;-82
2022/03/12 11:35:10;;;;;;;6.13;1.30;;;14.20;99.90;;;;;;5135047;27;20192;-82
2022/03/12 11:37:41;;;;;;;6.53;1.67;;;14.50;99.90;;;;;;5150956;27;20211;-82
2022/03/12 11:40:11;;;;;;;4.00;1.27;;;14.30;99.90;;;;;;5145030;27;20197;-83
2022/03/12 11:42:39;;;;;;;8.80;1.73;;;13.80;99.90;;;;;;5128912;27;20193;-83
2022/03/12 11:45:12;;;;;;;5.97;1.20;;;14.00;99.90;;;;;;5129513;28;20672;-83
2022/03/12 11:47:40;;;;;;;5.93;1.53;;;14.30;99.90;;;;;;5125747;28;20201;-82
2022/03/12 11:50:18;;;;;;;5.77;1.47;;;15.50;99.90;;;;;;5125749;28;20301;-81
2022/03/12 11:52:47;;;;;;;5.93;1.33;;;16.40;99.90;;;;;;5127451;28;20247;-83
2022/03/12 11:55:18;;;;;;;6.50;1.50;;;16.00;99.90;;;;;;5134198;27;20574;-82
2022/03/12 11:57:48;;;;;;;5.53;1.20;;;15.50;99.90;;;;;;5128738;28;20282;-82
2022/03/12 12:00:22;;;;;;;3.97;1.40;;;15.20;99.90;;;;;;5116755;27;20696;-83
2022/03/12 12:02:51;;;;;;;4.23;0.90;;;15.10;99.90;;;;;;5094026;28;20599;-82
2022/03/12 12:05:19;;;;;;;5.50;1.47;;;14.60;99.90;;;;;;5088310;28;20249;-81
2022/03/12 12:07:48;;;;;;;4.13;1.20;;;14.60;99.90;;;;;;5087967;28;20666;-82
2022/03/12 12:10:17;;;;;;;7.20;1.40;;;14.30;99.90;;;;;;5088083;28;20285;-83
2022/03/12 12:12:46;;;;;;;5.37;1.67;;;14.90;99.90;;;;;;5087649;28;20285;-82
2022/03/12 12:15:17;;;;;;;8.60;1.47;;;14.80;99.90;;;;;;5102905;28;20291;-80
2022/03/12 12:17:45;;;;;;;6.37;1.30;;;16.40;99.90;;;;;;5095552;28;20259;-81
2022/03/12 12:20:15;;;;;;;9.53;3.27;;;16.00;99.90;;;;;;5092898;28;20314;-81
2022/03/12 12:22:42;;;;;;;7.50;1.60;;;14.70;99.90;;;;;;5088699;28;20203;-82
2022/03/12 12:25:11;;;;;;;4.10;1.07;;;14.20;99.90;;;;;;5106613;28;20685;-81
2022/03/12 12:27:44;;;;;;;5.37;1.40;;;14.90;99.90;;;;;;5090611;28;20198;-81
2022/03/12 12:30:16;;;;;;;6.00;1.33;;;15.10;99.90;;;;;;5087767;28;20233;-81
2022/03/12 12:32:49;;;;;;;5.53;1.70;;;15.00;99.90;;;;;;5078995;28;20285;-81
2022/03/12 12:35:18;;;;;;;4.97;1.60;;;15.20;99.90;;;;;;5074584;28;20657;-81
2022/03/12 12:37:49;;;;;;;6.23;1.27;;;14.40;99.90;;;;;;5090587;28;20226;-81
2022/03/12 12:40:29;;;;;;;5.33;1.27;;;14.30;99.90;;;;;;5080232;28;20289;-81
2022/03/12 12:42:58;;;;;;;4.73;1.47;;;14.50;99.90;;;;;;5095840;28;20202;-81
2022/03/12 12:45:28;;;;;;;5.97;1.60;;;14.30;99.90;;;;;;5074257;28;20230;-81
2022/03/12 12:48:12;;;;;;;7.87;1.40;;;13.80;99.90;;;;;;5079766;28;20212;-81
2022/03/12 12:50:39;;;;;;;6.13;1.70;;;14.10;99.90;;;;;;5094873;28;20198;-81
2022/03/12 12:53:17;;;;;;;4.53;1.10;;;14.10;99.90;;;;;;5097272;28;20206;-81
2022/03/12 12:55:46;;;;;;;4.70;1.37;;;13.60;99.90;;;;;;5086416;28;20241;-80
2022/03/12 12:58:14;;;;;;;8.17;1.60;;;14.30;99.90;;;;;;5093200;28;20226;-81
2022/03/12 13:00:46;;;;;;;4.47;1.00;;;14.10;99.90;;;;;;5078569;28;20223;-80
2022/03/12 13:03:18;;;;;;;4.80;1.10;;;13.90;99.90;;;;;;5088039;28;20202;-80
2022/03/12 13:05:49;;;;;;;5.67;1.27;;;14.40;99.90;;;;;;5077243;28;20199;-80
2022/03/12 13:08:17;;;;;;;6.07;1.53;;;14.90;99.90;;;;;;5079610;28;20260;-81
2022/03/12 13:10:46;;;;;;;5.33;1.43;;;14.80;99.90;;;;;;5083659;28;20197;-80
2022/03/12 13:13:15;;;;;;;4.93;1.30;;;15.40;99.90;;;;;;5073632;28;20758;-81
2022/03/12 13:15:44;;;;;;;5.70;1.47;;;16.40;96.80;;;;;;5074176;28;20276;-80
2022/03/12 13:18:41;;;;;;;6.37;1.60;;;16.40;93.70;;;;;;5073685;28;20239;-81
2022/03/12 13:21:27;;;;;;;5.70;1.67;;;15.40;94.30;;;;;;5102456;28;20237;-80
2022/03/12 13:23:54;;;;;;;8.03;1.47;;;14.80;99.10;;;;;;5072927;28;20573;-80
2022/03/12 13:26:26;;;;;;;5.50;1.20;;;13.80;99.90;;;;;;5072869;28;20234;-81
2022/03/12 13:29:08;;;;;;;4.60;1.27;;;13.80;99.90;;;;;;5074522;28;20202;-81
2022/03/12 13:31:35;;;;;;;6.80;1.50;;;13.40;99.90;;;;;;5092850;28;20235;-81
2022/03/12 13:34:07;;;;;;;3.97;1.40;;;14.00;99.90;;;;;;5082277;28;20625;-81
2022/03/12 13:36:36;;;;;;;8.03;1.60;;;13.90;99.90;;;;;;5072792;28;20665;-81
2022/03/12 13:39:05;;;;;;;5.93;1.73;;;13.90;99.90;;;;;;5085499;28;20737;-80
2022/03/12 13:41:32;;;;;;;3.70;1.33;;;14.10;99.90;;;;;;5072611;28;20223;-81
2022/03/12 13:44:00;;;;;;;8.73;1.40;;;14.40;99.90;;;;;;5072455;28;20235;-81
2022/03/12 13:46:29;;;;;;;4.83;1.30;;;14.10;99.90;;;;;;5092674;28;20711;-80
2022/03/12 13:49:10;;;;;;;4.57;1.10;;;14.10;99.90;;;;;;5084518;28;20205;-81
2022/03/12 13:51:40;;;;;;;5.13;1.47;;;13.70;99.90;;;;;;5109020;28;20194;-81
2022/03/12 13:54:08;;;;;;;4.80;1.30;;;14.80;99.90;;;;;;5113579;28;20200;-81
2022/03/12 13:56:39;;;;;;;6.00;1.17;;;15.30;98.20;;;;;;5113254;28;20746;-81
2022/03/12 13:59:10;;;;;;;5.97;1.40;;;14.60;99.90;;;;;;5101906;28;20214;-81
2022/03/12 14:01:39;;;;;;;4.77;1.10;;;14.60;99.90;;;;;;5092905;28;20222;-81
2022/03/12 14:04:15;;;;;;;7.07;1.30;;;14.20;99.90;;;;;;5092936;28;20256;-81
2022/03/12 14:06:44;;;;;;;5.10;1.33;;;13.70;99.90;;;;;;5092482;28;20281;-81
2022/03/12 14:09:15;;;;;;;8.03;1.60;;;14.40;99.90;;;;;;5113141;28;20664;-81
2022/03/12 14:11:48;;;;;;;7.47;1.40;;;14.20;99.90;;;;;;5113241;28;20280;-81
2022/03/12 14:14:17;;;;;;;7.07;1.80;;;14.50;99.90;;;;;;5111936;28;20204;-82
2022/03/12 14:16:47;;;;;;;6.00;1.53;;;15.00;99.90;;;;;;5111012;28;20232;-81